Weather History for KBXK - June, 2013

Change the Weather History Date:

Sunday, June 2, 2013

  Actual Average (KGYR) Record (KGYR)
Temperature  
Mean Temperature 89 °F -  
Max Temperature 105 °F 98 °F 111 °F (2001)
Min Temperature 73 °F 68 °F 66 °F (1998)
Cooling Degree Days 24    
Growing Degree Days 39 (Base 50)    
Moisture  
Dew Point 36 °F    
Average Humidity 15    
Maximum Humidity 30    
Minimum Humidity 7    
Precipitation  
Precipitation 0.00 in - - ()
Sea Level Pressure  
Sea Level Pressure 29.69 in    
Wind  
Wind Speed 6 mph (South)    
Max Wind Speed 17 mph    
Max Gust Speed 24 mph    
Visibility 10 miles    
Events      
Averages and records for this station are not official NWS values.
T = Trace of Precipitation, MM = Missing Value Source: NWS Daily Summary

Daily Weather History Graph

Daily Weather History Graph

Search for Another Location

Airport or City:

Trip Planner

Search our weather history database for the weather conditions in past years. The results will help you decide how hot, cold, wet, or windy it might be!

Date:

Astronomy

Jun. 02, 2013 Rise Set
Actual Time 5:21 AM MST 7:36 PM MST
Civil Twilight 4:53 AM MST 8:04 PM MST
Nautical Twilight 4:18 AM MST 8:39 PM MST
Astronomical Twilight 3:40 AM MST 9:17 PM MST
Moon 1:35 AM MST (6/2) 2:24 PM MST (6/2)
Length of Visible Light 15h 11m
Length of Day
14h 14m
Waning Crescent, 30% of the Moon is Illuminated
Jun 2
Waning Crescent
Jun 8
New
Jun 16
First Quarter
Jun 23
Full
Jun 29
Last Quarter

Hourly Weather History & Observations

Time (MST) Temp. Dew Point Humidity Pressure Visibility Wind Dir Wind Speed Gust Speed Precip Events Conditions
12:15 AM 84.2 °F 35.6 °F 18% 29.70 in 10.0 mi North 5.8 mph - N/A   Clear
12:35 AM 84.2 °F 35.6 °F 18% 29.70 in 10.0 mi North 5.8 mph - N/A   Clear
12:55 AM 82.4 °F 39.2 °F 21% 29.70 in 10.0 mi Calm Calm - N/A   Clear
1:15 AM 82.4 °F 39.2 °F 21% 29.70 in 10.0 mi ESE 3.5 mph - N/A   Clear
1:35 AM 84.2 °F 37.4 °F 19% 29.70 in 10.0 mi Calm Calm - N/A   Clear
1:55 AM 82.4 °F 37.4 °F 20% 29.70 in 10.0 mi SSE 3.5 mph - N/A   Clear
2:15 AM 80.6 °F 35.6 °F 20% 29.70 in 10.0 mi Calm Calm - N/A   Clear
2:35 AM 78.8 °F 44.6 °F 30% 29.70 in 10.0 mi SE 3.5 mph - N/A   Clear
2:55 AM 78.8 °F 41.0 °F 26% 29.70 in 10.0 mi Calm Calm - N/A   Clear
3:15 AM 75.2 °F 37.4 °F 25% 29.70 in 10.0 mi Calm Calm - N/A   Clear
3:35 AM 75.2 °F 35.6 °F 24% 29.70 in 10.0 mi Calm Calm - N/A   Clear
3:55 AM 75.2 °F 35.6 °F 24% 29.70 in 10.0 mi NW 3.5 mph - N/A   Clear
4:15 AM 73.4 °F 33.8 °F 23% 29.70 in 10.0 mi NW 4.6 mph - N/A   Clear
4:35 AM 77.0 °F 37.4 °F 24% 29.70 in 10.0 mi NW 3.5 mph - N/A   Clear
4:55 AM 75.2 °F 35.6 °F 24% 29.70 in 10.0 mi NNW 4.6 mph - N/A   Clear
5:15 AM 75.2 °F 35.6 °F 24% 29.71 in 10.0 mi North 6.9 mph - N/A   Clear
5:35 AM 75.2 °F 35.6 °F 24% 29.71 in 10.0 mi North 5.8 mph - N/A   Clear
5:55 AM 75.2 °F 37.4 °F 25% 29.72 in 10.0 mi North 4.6 mph - N/A   Clear
6:15 AM 77.0 °F 37.4 °F 24% 29.73 in 10.0 mi NNE 3.5 mph - N/A   Clear
6:35 AM 80.6 °F 37.4 °F 21% 29.73 in 10.0 mi Calm Calm - N/A   Clear
6:55 AM 82.4 °F 41.0 °F 23% 29.74 in 10.0 mi NNE 3.5 mph - N/A   Clear
7:15 AM 86.0 °F 41.0 °F 20% 29.74 in 10.0 mi Calm Calm - N/A   Clear
7:35 AM 87.8 °F 41.0 °F 19% 29.74 in 10.0 mi Calm Calm - N/A   Clear
7:55 AM 89.6 °F 44.6 °F 21% 29.74 in 10.0 mi Calm Calm - N/A   Clear
8:15 AM 89.6 °F 44.6 °F 21% 29.75 in 9.0 mi ESE 4.6 mph - N/A   Clear
8:35 AM 89.6 °F 44.6 °F 21% 29.75 in 8.0 mi SE 5.8 mph - N/A   Clear
8:55 AM 91.4 °F 42.8 °F 18% 29.75 in 10.0 mi ESE 5.8 mph - N/A   Clear
9:15 AM 91.4 °F 44.6 °F 20% 29.75 in 10.0 mi SE 6.9 mph - N/A   Clear
9:35 AM 91.4 °F 41.0 °F 17% 29.75 in 10.0 mi SSE 4.6 mph - N/A   Clear
9:55 AM 93.2 °F 41.0 °F 16% 29.75 in 10.0 mi SE 4.6 mph - N/A   Clear
10:15 AM 95.0 °F 41.0 °F 15% 29.75 in 10.0 mi SSW 5.8 mph - N/A   Clear
10:35 AM 95.0 °F 41.0 °F 15% 29.75 in 10.0 mi SSE 5.8 mph - N/A   Clear
10:55 AM 95.0 °F 41.0 °F 15% 29.75 in 10.0 mi SE 5.8 mph - N/A   Clear
11:15 AM 98.6 °F 42.8 °F 15% 29.74 in 10.0 mi SSE 4.6 mph - N/A   Clear
11:35 AM 98.6 °F 41.0 °F 14% 29.74 in 10.0 mi SE 5.8 mph - N/A   Clear
11:55 AM 100.4 °F 39.2 °F 12% 29.73 in 10.0 mi South 8.1 mph - N/A   Clear
12:15 PM 100.4 °F 39.2 °F 12% 29.72 in 10.0 mi South 9.2 mph - N/A   Clear
12:35 PM 102.2 °F 39.2 °F 11% 29.71 in 10.0 mi SSE 10.4 mph - N/A   Clear
12:55 PM 102.2 °F 37.4 °F 11% 29.70 in 10.0 mi ESE 5.8 mph - N/A   Clear
1:15 PM 102.2 °F 35.6 °F 10% 29.70 in 10.0 mi South 8.1 mph - N/A   Clear
1:35 PM 104.0 °F 35.6 °F 9% 29.69 in 10.0 mi SSW 10.4 mph - N/A   Clear
1:55 PM 104.0 °F 32.0 °F 8% 29.68 in 10.0 mi SW 10.4 mph - N/A   Clear
2:15 PM 104.0 °F 32.0 °F 8% 29.68 in 10.0 mi South 10.4 mph - N/A   Clear
2:35 PM 104.0 °F 32.0 °F 8% 29.67 in 10.0 mi SW 6.9 mph - N/A   Clear
2:55 PM 105.8 °F 30.2 °F 7% 29.66 in 10.0 mi SSW 11.5 mph 17.3 mph N/A   Clear
3:15 PM 105.8 °F 32.0 °F 8% 29.65 in 10.0 mi South 11.5 mph 19.6 mph N/A   Clear
3:35 PM 105.8 °F 32.0 °F 8% 29.64 in 10.0 mi South 15.0 mph 20.7 mph N/A   Clear
3:55 PM 105.8 °F 32.0 °F 8% 29.64 in 10.0 mi South 17.3 mph 24.2 mph N/A   Clear
4:15 PM 105.8 °F 30.2 °F 7% 29.63 in 10.0 mi South 13.8 mph 18.4 mph N/A   Clear
4:35 PM 105.8 °F 32.0 °F 8% 29.62 in 10.0 mi SW 10.4 mph 23.0 mph N/A   Clear
4:55 PM 105.8 °F 33.8 °F 8% 29.62 in 10.0 mi South 12.7 mph - N/A   Clear
5:15 PM 104.0 °F 35.6 °F 9% 29.61 in 10.0 mi South 11.5 mph 18.4 mph N/A   Clear
5:35 PM 104.0 °F 33.8 °F 9% 29.62 in 10.0 mi SSW 15.0 mph 19.6 mph N/A   Clear
5:55 PM 102.2 °F 35.6 °F 10% 29.61 in 10.0 mi South 13.8 mph 18.4 mph N/A   Clear
6:15 PM 102.2 °F 32.0 °F 9% 29.62 in 10.0 mi SSW 17.3 mph 20.7 mph N/A   Clear
6:35 PM 100.4 °F 32.0 °F 9% 29.62 in 10.0 mi SSW 16.1 mph 21.9 mph N/A   Clear
6:55 PM 100.4 °F 32.0 °F 9% 29.62 in 10.0 mi SSW 12.7 mph 19.6 mph N/A   Clear
7:15 PM 96.8 °F 32.0 °F 10% 29.63 in 10.0 mi SSW 11.5 mph - N/A   Clear
7:35 PM 95.0 °F 32.0 °F 11% 29.63 in 10.0 mi SSW 12.7 mph - N/A   Clear
7:55 PM 93.2 °F 33.8 °F 12% 29.64 in 10.0 mi SSW 12.7 mph - N/A   Clear
8:15 PM 91.4 °F 32.0 °F 12% 29.64 in 10.0 mi SSW 12.7 mph - N/A   Clear
8:35 PM 91.4 °F 32.0 °F 12% 29.65 in 10.0 mi SSW 11.5 mph - N/A   Clear
8:55 PM 89.6 °F 32.0 °F 13% 29.66 in 10.0 mi SSW 9.2 mph - N/A   Clear
9:15 PM 89.6 °F 32.0 °F 13% 29.67 in 10.0 mi SSW 6.9 mph - N/A   Clear
9:35 PM 86.0 °F 32.0 °F 14% 29.67 in 10.0 mi SW 8.1 mph - N/A   Clear
9:55 PM 86.0 °F 32.0 °F 14% 29.67 in 10.0 mi SW 6.9 mph - N/A   Clear
10:15 PM 84.2 °F 28.4 °F 13% 29.68 in 10.0 mi Calm Calm - N/A   Clear
10:35 PM 86.0 °F 26.6 °F 12% 29.68 in 10.0 mi Calm Calm - N/A   Clear
10:55 PM 84.2 °F 26.6 °F 12% 29.68 in 10.0 mi SW 4.6 mph - N/A   Clear
11:15 PM 84.2 °F 24.8 °F 11% 29.67 in 10.0 mi WSW 5.8 mph - N/A   Clear
11:35 PM 84.2 °F 24.8 °F 11% 29.67 in 10.0 mi WSW 5.8 mph - N/A   Clear
11:55 PM 84.2 °F 24.8 °F 11% 29.68 in 10.0 mi SW 5.8 mph - N/A   Clear